createdAt,value
2023-06-03T00:00:57.937Z,97481.11
2023-06-03T00:03:46.252Z,97485.12
2023-06-03T00:06:13.803Z,97486.44
2023-06-03T00:08:42.901Z,97487.16
2023-06-03T00:11:12.040Z,97488.11
2023-06-03T00:13:39.440Z,97483.62
2023-06-03T00:16:07.236Z,97487.87
2023-06-03T00:18:34.225Z,97490.44
2023-06-03T00:21:02.029Z,97486.54
2023-06-03T00:23:28.925Z,97484.41
2023-06-03T00:25:55.765Z,97484.27
2023-06-03T00:28:22.530Z,97486.31
2023-06-03T00:30:50.968Z,97486.88
2023-06-03T00:33:18.166Z,97484.20
2023-06-03T00:35:44.929Z,97482.92
2023-06-03T00:38:11.842Z,97477.50
2023-06-03T00:40:38.761Z,97476.38
2023-06-03T00:43:05.494Z,97476.70
2023-06-03T00:45:32.413Z,97475.21
2023-06-03T00:47:59.808Z,97478.09
2023-06-03T00:50:26.715Z,97478.75
2023-06-03T00:52:54.098Z,97477.71
2023-06-03T00:55:20.905Z,97474.82
2023-06-03T00:57:49.191Z,97470.10
2023-06-03T01:00:16.163Z,97468.95
2023-06-03T01:02:44.676Z,97461.55
2023-06-03T01:05:13.794Z,97460.70
2023-06-03T01:08:25.184Z,97465.73
2023-06-03T01:11:06.243Z,97465.79
2023-06-03T01:13:43.630Z,97468.59
2023-06-03T01:16:12.898Z,97463.98
2023-06-03T01:18:43.127Z,97467.27
2023-06-03T01:21:12.972Z,97466.90
2023-06-03T01:23:44.677Z,97463.68
2023-06-03T01:26:12.426Z,97464.38
2023-06-03T01:28:39.891Z,97463.46
2023-06-03T01:31:07.663Z,97463.09
2023-06-03T01:33:36.407Z,97467.27
2023-06-03T01:36:05.174Z,97469.36
2023-06-03T01:38:33.301Z,97470.67
2023-06-03T01:41:03.363Z,97473.67
2023-06-03T01:43:31.025Z,97476.31
2023-06-03T01:45:58.135Z,97475.30
2023-06-03T01:48:25.242Z,97480.45
2023-06-03T01:50:52.014Z,97481.23
2023-06-03T01:53:19.904Z,97484.10
2023-06-03T01:55:47.027Z,97489.18
2023-06-03T01:58:14.491Z,97493.67
2023-06-03T02:00:42.537Z,97494.69
2023-06-03T02:03:09.440Z,97497.27
2023-06-03T02:05:36.482Z,97502.15
2023-06-03T02:08:03.367Z,97500.72
2023-06-03T02:10:30.785Z,97504.52
2023-06-03T02:12:57.882Z,97506.85
2023-06-03T02:15:24.920Z,97509.86
2023-06-03T02:17:51.738Z,97513.12
2023-06-03T02:20:18.686Z,97519.35
2023-06-03T02:22:45.971Z,97518.89
2023-06-03T02:25:13.986Z,97523.57
2023-06-03T02:27:40.701Z,97530.58
2023-06-03T02:30:12.326Z,97537.73
2023-06-03T02:32:39.182Z,97539.19
2023-06-03T02:35:06.538Z,97541.58
2023-06-03T02:37:33.798Z,97545.58
2023-06-03T02:40:01.193Z,97545.60
2023-06-03T02:42:28.636Z,97547.23
2023-06-03T02:44:55.851Z,97550.16
2023-06-03T02:47:23.274Z,97552.79
2023-06-03T02:49:51.365Z,97559.46
2023-06-03T02:52:18.364Z,97568.98
2023-06-03T02:54:45.150Z,97575.83
2023-06-03T02:57:11.942Z,97580.05
2023-06-03T02:59:38.987Z,97576.89
2023-06-03T03:02:06.179Z,97576.73
2023-06-03T03:04:36.842Z,97576.58
2023-06-03T03:07:09.993Z,97575.58
2023-06-03T03:09:37.539Z,97577.20
2023-06-03T03:12:05.760Z,97572.76
2023-06-03T03:14:33.091Z,97575.91
2023-06-03T03:17:00.244Z,97574.70
2023-06-03T03:19:27.616Z,97576.48
2023-06-03T03:21:54.407Z,97578.39
2023-06-03T03:24:26.719Z,97578.91
2023-06-03T03:26:54.348Z,97578.97
2023-06-03T03:29:24.740Z,97577.27
2023-06-03T03:31:58.020Z,97580.02
2023-06-03T03:34:25.101Z,97580.60
2023-06-03T03:36:52.307Z,97584.95
2023-06-03T03:39:19.875Z,97587.08
2023-06-03T03:41:51.216Z,97589.20
2023-06-03T03:44:18.101Z,97595.69
2023-06-03T03:47:04.053Z,97601.48
2023-06-03T03:49:35.867Z,97600.27
2023-06-03T03:52:06.200Z,97603.56
2023-06-03T03:54:35.900Z,97601.73
2023-06-03T03:57:09.965Z,97604.31
2023-06-03T03:59:37.310Z,97603.88
2023-06-03T04:02:04.394Z,97608.58
2023-06-03T04:04:43.217Z,97609.84
2023-06-03T04:07:15.093Z,97611.79
2023-06-03T04:09:44.933Z,97611.48
2023-06-03T04:12:25.897Z,97617.50
2023-06-03T04:14:54.503Z,97619.13
2023-06-03T04:17:25.924Z,97618.21
2023-06-03T04:19:53.281Z,97624.27
2023-06-03T04:22:25.065Z,97627.95
2023-06-03T04:25:01.265Z,97625.88
2023-06-03T04:27:34.097Z,97626.09
2023-06-03T04:30:01.800Z,97626.35
2023-06-03T04:32:29.943Z,97628.48
2023-06-03T04:34:56.922Z,97628.16
2023-06-03T04:37:24.156Z,97630.88
2023-06-03T04:39:51.864Z,97635.11
2023-06-03T04:42:18.745Z,97639.80
2023-06-03T04:44:48.799Z,97639.43
2023-06-03T04:47:17.898Z,97636.59
2023-06-03T04:49:47.608Z,97637.57
2023-06-03T04:52:14.551Z,97638.63
2023-06-03T04:54:44.005Z,97642.48
2023-06-03T04:57:12.319Z,97647.66
2023-06-03T04:59:39.230Z,97648.88
2023-06-03T05:02:09.105Z,97649.55
2023-06-03T05:04:38.104Z,97651.95
2023-06-03T05:07:05.229Z,97662.84
2023-06-03T05:09:32.194Z,97661.25
2023-06-03T05:11:59.293Z,97662.38
2023-06-03T05:14:26.162Z,97664.61
2023-06-03T05:16:53.386Z,97668.71
2023-06-03T05:19:20.534Z,97671.37
2023-06-03T05:21:47.696Z,97674.16
2023-06-03T05:24:14.494Z,97673.98
2023-06-03T05:26:41.637Z,97674.54
2023-06-03T05:29:09.360Z,97675.89
2023-06-03T05:31:36.355Z,97674.66
2023-06-03T05:34:03.209Z,97680.31
2023-06-03T05:36:30.576Z,97683.19
2023-06-03T05:38:59.232Z,97685.80
2023-06-03T05:41:26.179Z,97686.52
2023-06-03T05:43:54.063Z,97689.73
2023-06-03T05:46:21.461Z,97692.48
2023-06-03T05:48:48.575Z,97689.23
2023-06-03T05:51:15.756Z,97689.38
2023-06-03T05:53:44.483Z,97690.96
2023-06-03T05:56:12.886Z,97693.52
2023-06-03T05:58:39.903Z,97698.80
2023-06-03T06:01:06.925Z,97702.00
2023-06-03T06:03:34.079Z,97708.20
2023-06-03T06:06:01.661Z,97712.02
2023-06-03T06:08:29.219Z,97706.48
2023-06-03T06:10:56.360Z,97702.33
2023-06-03T06:13:23.348Z,97704.61
2023-06-03T06:16:01.597Z,97707.06
2023-06-03T06:18:32.132Z,97708.41
2023-06-03T06:21:00.143Z,97708.07
2023-06-03T06:23:27.424Z,97710.55
2023-06-03T06:25:55.751Z,97714.98
2023-06-03T06:28:28.195Z,97712.59
2023-06-03T06:31:05.786Z,97714.77
2023-06-03T06:33:36.578Z,97716.89
2023-06-03T06:36:27.750Z,97716.41
2023-06-03T06:38:55.749Z,97716.88
2023-06-03T06:41:22.749Z,97719.29
2023-06-03T06:43:49.783Z,97720.58
2023-06-03T06:46:17.759Z,97715.16
2023-06-03T06:48:44.962Z,97717.52
2023-06-03T06:51:12.605Z,97718.02
2023-06-03T06:53:43.208Z,97718.32
2023-06-03T06:56:13.166Z,97719.13
2023-06-03T06:58:46.749Z,97715.41
2023-06-03T07:01:15.245Z,97718.59
2023-06-03T07:03:50.389Z,97718.60
2023-06-03T07:06:17.928Z,97726.32
2023-06-03T07:08:46.008Z,97728.02
2023-06-03T07:11:15.138Z,97733.52
2023-06-03T07:13:45.832Z,97734.06
2023-06-03T07:16:16.143Z,97729.06
2023-06-03T07:18:43.322Z,97729.31
2023-06-03T07:21:10.605Z,97727.46
2023-06-03T07:23:38.519Z,97729.80
2023-06-03T07:26:05.811Z,97729.43
2023-06-03T07:28:35.371Z,97730.95
2023-06-03T07:31:09.613Z,97728.12
2023-06-03T07:33:48.588Z,97730.20
2023-06-03T07:36:21.385Z,97730.65
2023-06-03T07:38:57.433Z,97733.52
2023-06-03T07:41:37.094Z,97729.48
2023-06-03T07:44:13.922Z,97728.77
2023-06-03T07:46:45.592Z,97724.03
2023-06-03T07:49:15.386Z,97724.85
2023-06-03T07:51:49.650Z,97723.44
2023-06-03T07:54:18.307Z,97723.21
2023-06-03T07:56:46.448Z,97725.39
2023-06-03T07:59:15.551Z,97722.50
2023-06-03T08:01:43.562Z,97724.27
2023-06-03T08:04:35.894Z,97725.87
2023-06-03T08:07:03.116Z,97725.35
2023-06-03T08:09:35.170Z,97721.27
2023-06-03T08:12:05.839Z,97725.20
2023-06-03T08:14:35.215Z,97723.38
2023-06-03T08:17:06.804Z,97724.78
2023-06-03T08:19:35.340Z,97724.19
2023-06-03T08:22:02.246Z,97722.63
2023-06-03T08:24:29.007Z,97725.51
2023-06-03T08:26:56.172Z,97730.27
2023-06-03T08:29:23.104Z,97726.72
2023-06-03T08:31:49.944Z,97727.77
2023-06-03T08:34:16.855Z,97726.71
2023-06-03T08:36:43.839Z,97723.27
2023-06-03T08:39:10.915Z,97726.13
2023-06-03T08:41:42.009Z,97725.84
2023-06-03T08:44:22.641Z,97730.33
2023-06-03T08:46:59.523Z,97735.45
2023-06-03T08:49:36.870Z,97738.95
2023-06-03T08:52:08.636Z,97738.59
2023-06-03T08:54:38.118Z,97737.76
2023-06-03T08:57:12.352Z,97739.34
2023-06-03T08:59:42.683Z,97742.13
2023-06-03T09:02:13.243Z,97744.89
2023-06-03T09:04:41.524Z,97745.96
2023-06-03T09:07:11.556Z,97748.02
2023-06-03T09:09:41.061Z,97753.11
2023-06-03T09:12:09.105Z,97759.29
2023-06-03T09:14:40.045Z,97757.20
2023-06-03T09:17:07.313Z,97760.13
2023-06-03T09:19:35.318Z,97758.80
2023-06-03T09:22:04.289Z,97761.66
2023-06-03T09:24:31.080Z,97759.73
2023-06-03T09:26:58.629Z,97760.58
2023-06-03T09:29:25.535Z,97766.13
2023-06-03T09:31:52.901Z,97763.23
2023-06-03T09:34:22.616Z,97764.05
2023-06-03T09:36:50.143Z,97767.39
2023-06-03T09:39:32.399Z,97763.31
2023-06-03T09:41:59.161Z,97758.33
2023-06-03T09:44:49.298Z,97761.67
2023-06-03T09:47:16.954Z,97759.58
2023-06-03T09:50:05.398Z,97761.80
2023-06-03T09:52:36.560Z,97760.06
2023-06-03T09:55:08.642Z,97751.67
2023-06-03T09:57:36.897Z,97755.31
2023-06-03T10:00:12.297Z,97757.00
2023-06-03T10:02:40.648Z,97759.94
2023-06-03T10:05:27.878Z,97759.04
2023-06-03T10:07:55.895Z,97759.33
2023-06-03T10:10:23.640Z,97752.17
2023-06-03T10:12:51.700Z,97753.63
2023-06-03T10:15:40.148Z,97752.33
2023-06-03T10:18:08.035Z,97757.36
2023-06-03T10:20:36.127Z,97761.67
2023-06-03T10:23:05.386Z,97758.20
2023-06-03T10:25:38.307Z,97763.01
2023-06-03T10:28:05.954Z,97757.45
2023-06-03T10:30:32.959Z,97750.16
2023-06-03T10:33:03.863Z,97744.44
2023-06-03T10:35:35.136Z,97746.53
2023-06-03T10:38:04.334Z,97742.91
2023-06-03T10:40:32.445Z,97736.69
2023-06-03T10:43:02.932Z,97740.57
2023-06-03T10:45:30.677Z,97739.04
2023-06-03T10:48:04.153Z,97738.66
2023-06-03T10:50:51.175Z,97735.69
2023-06-03T10:53:28.237Z,97740.25
2023-06-03T10:56:20.604Z,97744.19
2023-06-03T10:58:58.971Z,97738.37
2023-06-03T11:02:01.350Z,97735.10
2023-06-03T11:04:30.784Z,97734.70
2023-06-03T11:06:58.481Z,97733.46
2023-06-03T11:09:40.046Z,97735.58
2023-06-03T11:12:13.919Z,97738.99
2023-06-03T11:14:43.222Z,97734.86
2023-06-03T11:17:13.014Z,97734.80
2023-06-03T11:19:46.047Z,97731.23
2023-06-03T11:22:35.854Z,97733.23
2023-06-03T11:25:03.200Z,97733.66
2023-06-03T11:27:30.879Z,97727.34
2023-06-03T11:30:03.088Z,97723.94
2023-06-03T11:32:36.391Z,97721.39
2023-06-03T11:35:03.901Z,97719.96
2023-06-03T11:37:49.060Z,97717.98
2023-06-03T11:40:20.977Z,97720.43
2023-06-03T11:42:47.995Z,97719.11
2023-06-03T11:45:30.154Z,97717.45
2023-06-03T11:48:06.100Z,97715.27
2023-06-03T11:50:54.112Z,97710.17
2023-06-03T11:53:28.857Z,97710.23
2023-06-03T11:56:09.975Z,97709.75
2023-06-03T11:58:38.629Z,97710.73
2023-06-03T12:01:08.679Z,97708.91
2023-06-03T12:03:39.441Z,97716.16
2023-06-03T12:06:06.870Z,97718.32
2023-06-03T12:08:46.340Z,97716.80
2023-06-03T12:11:31.187Z,97710.92
2023-06-03T12:13:58.057Z,97711.36
2023-06-03T12:16:33.991Z,97709.20
2023-06-03T12:19:03.838Z,97704.59
2023-06-03T12:21:40.043Z,97696.44
2023-06-03T12:24:13.740Z,97696.86
2023-06-03T12:26:41.779Z,97695.56
2023-06-03T12:29:11.797Z,97691.96
2023-06-03T12:31:39.114Z,97693.67
2023-06-03T12:34:06.240Z,97693.85
2023-06-03T12:36:46.661Z,97692.60
2023-06-03T12:39:13.820Z,97689.48
2023-06-03T12:41:51.470Z,97687.57
2023-06-03T12:44:18.743Z,97684.80
2023-06-03T12:47:02.083Z,97680.80
2023-06-03T12:49:29.056Z,97672.52
2023-06-03T12:52:21.355Z,97671.88
2023-06-03T12:54:53.340Z,97672.29
2023-06-03T12:57:20.817Z,97670.66
2023-06-03T13:00:04.870Z,97669.78
2023-06-03T13:02:31.953Z,97670.02
2023-06-03T13:04:59.047Z,97666.85
2023-06-03T13:07:26.239Z,97664.84
2023-06-03T13:09:58.987Z,97668.67
2023-06-03T13:12:26.302Z,97672.61
2023-06-03T13:14:53.642Z,97671.04
2023-06-03T13:17:23.481Z,97672.17
2023-06-03T13:19:51.207Z,97673.23
2023-06-03T13:25:22.754Z,97677.80
2023-06-03T13:27:53.091Z,97677.31
2023-06-03T13:30:20.961Z,97680.20
2023-06-03T13:32:47.789Z,97681.31
2023-06-03T13:35:14.818Z,97686.13
2023-06-03T13:37:41.656Z,97684.96
2023-06-03T13:40:09.131Z,97684.84
2023-06-03T13:42:36.395Z,97687.11
2023-06-03T13:45:06.887Z,97689.05
2023-06-03T13:47:34.671Z,97689.29
2023-06-03T13:50:02.372Z,97686.44
2023-06-03T13:52:29.187Z,97694.17
2023-06-03T13:54:56.003Z,97694.87
2023-06-03T13:57:22.767Z,97692.58
2023-06-03T13:59:49.527Z,97693.84
2023-06-03T14:02:16.744Z,97687.54
2023-06-03T14:04:43.829Z,97689.38
2023-06-03T14:07:11.131Z,97690.39
2023-06-03T14:09:38.098Z,97689.14
2023-06-03T14:12:05.664Z,97690.29
2023-06-03T14:14:32.493Z,97691.42
2023-06-03T14:16:59.321Z,97689.59
2023-06-03T14:19:26.173Z,97690.75
2023-06-03T14:21:53.071Z,97690.70
2023-06-03T14:24:20.089Z,97689.75
2023-06-03T14:26:47.119Z,97690.61
2023-06-03T14:29:14.157Z,97693.94
2023-06-03T14:31:41.288Z,97694.41
2023-06-03T14:34:08.346Z,97695.20
2023-06-03T14:36:36.154Z,97690.95
2023-06-03T14:39:03.074Z,97690.20
2023-06-03T14:41:31.441Z,97689.77
2023-06-03T14:43:58.732Z,97691.09
2023-06-03T14:46:29.244Z,97687.58
2023-06-03T14:48:56.507Z,97682.85
2023-06-03T14:51:23.668Z,97681.80
2023-06-03T14:53:50.966Z,97684.52
2023-06-03T14:56:17.979Z,97694.34
2023-06-03T14:58:44.988Z,97696.61
2023-06-03T15:01:12.121Z,97696.73
2023-06-03T15:03:39.064Z,97699.17
2023-06-03T15:06:06.366Z,97696.17
2023-06-03T15:08:33.566Z,97694.17
2023-06-03T15:11:00.477Z,97695.77
2023-06-03T15:13:27.335Z,97695.13
2023-06-03T15:15:54.170Z,97697.52
2023-06-03T15:18:21.085Z,97697.49
2023-06-03T15:20:48.408Z,97696.83
2023-06-03T15:23:15.869Z,97698.45
2023-06-03T15:25:42.916Z,97697.28
2023-06-03T15:28:10.336Z,97699.25
2023-06-03T15:30:38.380Z,97697.05
2023-06-03T15:33:06.597Z,97696.16
2023-06-03T15:35:33.521Z,97697.16
2023-06-03T15:38:00.613Z,97701.02
2023-06-03T15:40:27.532Z,97707.83
2023-06-03T15:42:58.018Z,97705.62
2023-06-03T15:45:25.152Z,97708.55
2023-06-03T15:47:52.133Z,97711.60
2023-06-03T15:50:19.447Z,97714.20
2023-06-03T15:52:46.284Z,97715.08
2023-06-03T15:55:13.383Z,97716.78
2023-06-03T15:57:40.528Z,97722.43
2023-06-03T16:00:08.288Z,97725.89
2023-06-03T16:02:36.211Z,97731.38
2023-06-03T16:05:04.727Z,97733.57
2023-06-03T16:07:32.968Z,97733.89
2023-06-03T16:10:01.606Z,97734.88
2023-06-03T16:12:30.202Z,97747.20
2023-06-03T16:14:57.759Z,97756.14
2023-06-03T16:17:29.301Z,97757.66
2023-06-03T16:24:26.298Z,97765.52
2023-06-03T16:27:53.042Z,97767.34
2023-06-03T16:29:02.150Z,97758.52
2023-06-03T16:30:20.948Z,97771.90
2023-06-03T16:32:48.105Z,97769.05
2023-06-03T16:35:19.564Z,97772.63
2023-06-03T16:37:52.784Z,97773.63
2023-06-03T16:50:29.362Z,97793.17
2023-06-03T17:17:41.951Z,97827.36
2023-06-03T17:25:05.905Z,97830.95
2023-06-03T18:05:41.709Z,97866.14
2023-06-03T18:08:12.146Z,97868.98
2023-06-03T18:10:59.949Z,97876.95
2023-06-03T18:18:25.510Z,97877.23
2023-06-03T18:26:02.101Z,97880.09
2023-06-03T18:28:29.208Z,97887.23
2023-06-03T18:40:39.051Z,97907.13
2023-06-03T18:46:57.832Z,97919.20
2023-06-03T18:49:52.453Z,97923.48
2023-06-03T18:53:20.096Z,97928.08
2023-06-03T19:02:30.167Z,97939.67
2023-06-03T19:05:30.834Z,97949.52
2023-06-03T19:08:23.309Z,97959.49
2023-06-03T19:10:55.517Z,97965.61
2023-06-03T19:13:26.438Z,97965.37
2023-06-03T19:15:58.508Z,97971.02
2023-06-03T19:18:33.567Z,97975.41
2023-06-03T19:21:02.898Z,97981.73
2023-06-03T19:24:03.113Z,97981.42
2023-06-03T19:26:42.384Z,97982.73
2023-06-03T19:56:12.823Z,97996.70
2023-06-03T20:08:52.791Z,98011.21
2023-06-03T20:11:35.755Z,98010.36
2023-06-03T20:14:24.591Z,98007.22
2023-06-03T20:17:19.598Z,98013.29
2023-06-03T20:29:11.831Z,98020.20
2023-06-03T20:31:40.109Z,98021.58
2023-06-03T20:34:07.171Z,98022.62
2023-06-03T20:36:35.038Z,98019.12
2023-06-03T20:39:02.237Z,98019.11
2023-06-03T20:41:29.811Z,98022.63
2023-06-03T20:43:56.924Z,98024.47
2023-06-03T20:46:25.430Z,98029.67
2023-06-03T20:48:52.489Z,98030.55
2023-06-03T20:51:19.585Z,98031.52
2023-06-03T20:53:46.899Z,98028.48
2023-06-03T20:56:19.540Z,98029.28
2023-06-03T20:58:49.361Z,98030.85
2023-06-03T21:01:35.581Z,98035.77
2023-06-03T21:04:03.523Z,98031.83
2023-06-03T21:06:31.014Z,98034.11
2023-06-03T21:08:58.219Z,98032.70
2023-06-03T21:11:25.685Z,98034.36
2023-06-03T21:13:54.588Z,98034.78
2023-06-03T21:16:21.665Z,98036.74
2023-06-03T21:18:48.757Z,98039.74
2023-06-03T21:21:15.873Z,98033.67
2023-06-03T21:23:43.039Z,98034.71
2023-06-03T21:26:10.372Z,98035.52
2023-06-03T21:28:37.393Z,98035.45
2023-06-03T21:31:04.669Z,98033.59
2023-06-03T21:33:31.821Z,98035.44
2023-06-03T21:36:00.139Z,98037.92
2023-06-03T21:38:27.567Z,98035.34
2023-06-03T21:40:56.796Z,98037.32
2023-06-03T21:43:23.953Z,98036.39
2023-06-03T21:45:51.374Z,98040.34
2023-06-03T21:48:18.471Z,98042.82
2023-06-03T21:50:45.699Z,98048.07
2023-06-03T21:53:12.766Z,98049.99
2023-06-03T21:55:40.778Z,98052.59
2023-06-03T21:58:08.175Z,98053.70
2023-06-03T22:00:35.324Z,98058.91
2023-06-03T22:03:02.819Z,98061.71
2023-06-03T22:05:29.888Z,98066.35
2023-06-03T22:07:56.885Z,98068.10
2023-06-03T22:10:23.895Z,98063.38
2023-06-03T22:12:51.166Z,98064.45
2023-06-03T22:15:18.328Z,98064.72
2023-06-03T22:17:45.654Z,98061.23
2023-06-03T22:20:12.735Z,98062.42
2023-06-03T22:22:40.488Z,98062.39
2023-06-03T22:25:08.882Z,98063.98
2023-06-03T22:27:35.961Z,98065.35
2023-06-03T22:30:05.357Z,98069.01
2023-06-03T22:32:32.497Z,98071.83
2023-06-03T22:34:59.455Z,98071.48
2023-06-03T22:37:26.440Z,98072.81
2023-06-03T22:39:53.695Z,98072.76
2023-06-03T22:42:20.824Z,98075.64
2023-06-03T22:44:47.996Z,98076.19
2023-06-03T22:47:15.122Z,98078.15
2023-06-03T22:49:42.187Z,98081.66
2023-06-03T22:52:09.321Z,98084.11
2023-06-03T22:54:36.384Z,98083.66
2023-06-03T22:57:03.615Z,98089.02
2023-06-03T22:59:30.547Z,98092.13
2023-06-03T23:01:58.692Z,98089.64
2023-06-03T23:04:25.832Z,98088.11
2023-06-03T23:06:52.754Z,98090.60
2023-06-03T23:09:19.881Z,98091.62
2023-06-03T23:11:47.771Z,98089.33
2023-06-03T23:14:14.736Z,98092.20
2023-06-03T23:16:42.056Z,98094.23
2023-06-03T23:19:09.224Z,98097.27
2023-06-03T23:21:36.301Z,98099.55
2023-06-03T23:24:03.518Z,98101.58
2023-06-03T23:26:30.683Z,98102.12
2023-06-03T23:28:57.698Z,98104.15
2023-06-03T23:31:25.490Z,98111.03
2023-06-03T23:33:52.521Z,98103.71
2023-06-03T23:36:21.205Z,98104.11
2023-06-03T23:38:50.404Z,98106.84
2023-06-03T23:41:17.465Z,98108.02
2023-06-03T23:43:44.884Z,98107.11
2023-06-03T23:46:12.253Z,98104.34
2023-06-03T23:48:41.180Z,98107.12
2023-06-03T23:51:10.352Z,98101.48
2023-06-03T23:53:37.381Z,98094.09
2023-06-03T23:56:04.537Z,98091.09
2023-06-03T23:58:31.648Z,98094.47
